Peggs, Oklahoma
Current Conditions -  °F | °C
As of 2:15 PM on Friday 19 Dec 2014 (Local Time) from KTQH Reporting Station
Haze Haze  
Wind Chill: 41°   Ceiling: 700
Heat Index: 41°   Visibility: 4mi
Dew Point: 37°   Wind: 3mph
Humidity: 87%   Direction: 10°N
Pressure: 30.19"   Gusts: NA
Location:  36.08°N, 95.1°W
Report Text: KTQH 192015Z AUTO 01003KT 4SM BR OVC007 05/03 A3019 RMK AO2
Loading
Personal Weather Stations






























Interactive Weather Map New forecast layout! Learn more

10-Day Weather Forecast

Advertisements
Track Severe Weather on mobile